Terminal Aerodrome Forecast
Issued by NWS

Home | Current Version | Previous Version | Graphics & Text | Print | Product List | Glossary On
Versions: 1 2 3 4 5 6 7 8 9 10 11 12 13 14 15 16 17 18 19
047
FTUS41 KCLE 190534
TAFFDY
TAF
KFDY 190534Z 1906/2006 30015G25KT P6SM OVC025
     FM191100 29015G25KT P6SM OVC035
     FM191600 29015G23KT P6SM BKN015
     FM191900 28015G25KT P6SM BKN035
     FM200400 26010KT P6SM SCT100=

USA.gov is the U.S. government's official web portal to all federal, state and local government web resources and services.